sensor_id;sensor_type;location;lat;lon;timestamp;pressure;altitude;pressure_sealevel;temperature;humidity
32747;BME280;19118;50.860;13.662;2022-07-26T00:00:56;96495.59;;;22.05;83.41
32747;BME280;19118;50.860;13.662;2022-07-26T00:05:57;96494.69;;;21.86;83.51
32747;BME280;19118;50.860;13.662;2022-07-26T00:10:57;96504.75;;;22.10;82.76
32747;BME280;19118;50.860;13.662;2022-07-26T00:15:58;96511.75;;;22.05;82.21
32747;BME280;19118;50.860;13.662;2022-07-26T00:20:58;96518.59;;;21.93;82.31
32747;BME280;19118;50.860;13.662;2022-07-26T00:25:59;96526.31;;;22.04;82.05
32747;BME280;19118;50.860;13.662;2022-07-26T00:30:59;96530.13;;;21.59;82.67
32747;BME280;19118;50.860;13.662;2022-07-26T00:36:00;96525.25;;;21.66;82.18
32747;BME280;19118;50.860;13.662;2022-07-26T00:41:01;96525.38;;;22.19;79.93
32747;BME280;19118;50.860;13.662;2022-07-26T00:46:01;96539.03;;;21.94;80.51
32747;BME280;19118;50.860;13.662;2022-07-26T00:51:01;96535.38;;;22.19;79.90
32747;BME280;19118;50.860;13.662;2022-07-26T00:56:02;96546.63;;;22.26;79.10
32747;BME280;19118;50.860;13.662;2022-07-26T01:01:02;96554.13;;;21.95;80.00
32747;BME280;19118;50.860;13.662;2022-07-26T01:06:04;96578.56;;;21.59;81.33
32747;BME280;19118;50.860;13.662;2022-07-26T01:11:05;96574.53;;;22.01;80.39
32747;BME280;19118;50.860;13.662;2022-07-26T01:16:05;96565.00;;;21.79;80.51
32747;BME280;19118;50.860;13.662;2022-07-26T01:21:07;96570.78;;;21.97;80.36
32747;BME280;19118;50.860;13.662;2022-07-26T01:26:09;96572.94;;;22.00;81.13
32747;BME280;19118;50.860;13.662;2022-07-26T01:31:09;96582.59;;;22.06;81.50
32747;BME280;19118;50.860;13.662;2022-07-26T01:36:09;96577.31;;;21.86;82.73
32747;BME280;19118;50.860;13.662;2022-07-26T01:41:11;96567.81;;;21.59;83.06
32747;BME280;19118;50.860;13.662;2022-07-26T01:46:11;96553.53;;;21.64;82.84
32747;BME280;19118;50.860;13.662;2022-07-26T01:51:12;96580.63;;;21.77;81.93
32747;BME280;19118;50.860;13.662;2022-07-26T01:56:13;96584.47;;;21.66;82.47
32747;BME280;19118;50.860;13.662;2022-07-26T02:01:14;96576.72;;;21.55;83.24
32747;BME280;19118;50.860;13.662;2022-07-26T02:06:14;96587.78;;;21.53;83.14
32747;BME280;19118;50.860;13.662;2022-07-26T02:11:14;96588.25;;;21.65;82.81
32747;BME280;19118;50.860;13.662;2022-07-26T02:16:15;96567.94;;;21.83;81.72
32747;BME280;19118;50.860;13.662;2022-07-26T02:21:15;96570.31;;;21.45;83.75
32747;BME280;19118;50.860;13.662;2022-07-26T02:26:15;96564.47;;;21.77;81.42
32747;BME280;19118;50.860;13.662;2022-07-26T02:31:16;96564.91;;;21.50;82.10
32747;BME280;19118;50.860;13.662;2022-07-26T02:36:16;96573.84;;;21.36;82.22
32747;BME280;19118;50.860;13.662;2022-07-26T02:41:16;96566.25;;;21.48;80.30
32747;BME280;19118;50.860;13.662;2022-07-26T02:46:17;96560.19;;;21.71;79.00
32747;BME280;19118;50.860;13.662;2022-07-26T02:51:17;96586.75;;;21.44;80.12
32747;BME280;19118;50.860;13.662;2022-07-26T02:56:17;96593.31;;;21.07;79.62
32747;BME280;19118;50.860;13.662;2022-07-26T03:01:18;96601.03;;;21.29;78.94
32747;BME280;19118;50.860;13.662;2022-07-26T03:06:18;96599.16;;;21.35;78.53
32747;BME280;19118;50.860;13.662;2022-07-26T03:11:19;96601.88;;;21.19;79.04
32747;BME280;19118;50.860;13.662;2022-07-26T03:16:19;96603.72;;;21.34;78.15
32747;BME280;19118;50.860;13.662;2022-07-26T03:21:20;96593.25;;;21.17;77.81
32747;BME280;19118;50.860;13.662;2022-07-26T03:26:20;96588.72;;;21.18;78.02
32747;BME280;19118;50.860;13.662;2022-07-26T03:31:20;96589.59;;;20.98;78.40
32747;BME280;19118;50.860;13.662;2022-07-26T03:36:22;96593.38;;;20.87;78.58
32747;BME280;19118;50.860;13.662;2022-07-26T03:41:22;96600.34;;;20.93;78.04
32747;BME280;19118;50.860;13.662;2022-07-26T03:46:23;96596.59;;;20.89;77.56
32747;BME280;19118;50.860;13.662;2022-07-26T03:51:23;96589.59;;;20.93;77.05
32747;BME280;19118;50.860;13.662;2022-07-26T03:56:23;96592.84;;;20.85;77.00
32747;BME280;19118;50.860;13.662;2022-07-26T04:01:33;96597.69;;;20.88;76.73
32747;BME280;19118;50.860;13.662;2022-07-26T04:06:35;96603.53;;;21.10;76.50
32747;BME280;19118;50.860;13.662;2022-07-26T04:11:35;96602.69;;;21.30;75.35
32747;BME280;19118;50.860;13.662;2022-07-26T04:16:36;96604.81;;;21.33;75.05
32747;BME280;19118;50.860;13.662;2022-07-26T04:21:36;96616.84;;;21.46;75.18
32747;BME280;19118;50.860;13.662;2022-07-26T04:26:37;96624.66;;;21.47;75.30
32747;BME280;19118;50.860;13.662;2022-07-26T04:31:37;96614.31;;;21.70;74.99
32747;BME280;19118;50.860;13.662;2022-07-26T04:36:37;96616.25;;;21.64;75.99
32747;BME280;19118;50.860;13.662;2022-07-26T04:41:38;96618.03;;;21.19;77.46
32747;BME280;19118;50.860;13.662;2022-07-26T04:46:38;96621.19;;;21.42;76.91
32747;BME280;19118;50.860;13.662;2022-07-26T04:51:38;96635.13;;;21.54;76.40
32747;BME280;19118;50.860;13.662;2022-07-26T04:56:39;96628.94;;;21.54;77.11
32747;BME280;19118;50.860;13.662;2022-07-26T05:01:39;96636.84;;;21.19;78.23
32747;BME280;19118;50.860;13.662;2022-07-26T05:06:39;96632.28;;;21.79;76.89
32747;BME280;19118;50.860;13.662;2022-07-26T05:11:39;96639.88;;;21.72;77.11
32747;BME280;19118;50.860;13.662;2022-07-26T05:16:40;96638.34;;;21.51;77.22
32747;BME280;19118;50.860;13.662;2022-07-26T05:21:40;96633.34;;;21.84;76.02
32747;BME280;19118;50.860;13.662;2022-07-26T05:26:41;96637.13;;;22.27;74.62
32747;BME280;19118;50.860;13.662;2022-07-26T05:31:41;96646.84;;;21.78;75.72
32747;BME280;19118;50.860;13.662;2022-07-26T05:36:41;96654.22;;;22.07;75.98
32747;BME280;19118;50.860;13.662;2022-07-26T05:41:42;96645.00;;;22.52;73.80
32747;BME280;19118;50.860;13.662;2022-07-26T05:46:42;96661.50;;;22.12;74.58
32747;BME280;19118;50.860;13.662;2022-07-26T05:51:43;96665.59;;;22.38;73.28
32747;BME280;19118;50.860;13.662;2022-07-26T05:56:43;96659.47;;;22.95;71.05
32747;BME280;19118;50.860;13.662;2022-07-26T06:01:43;96668.09;;;22.29;72.47
32747;BME280;19118;50.860;13.662;2022-07-26T06:06:44;96664.16;;;22.85;69.50
32747;BME280;19118;50.860;13.662;2022-07-26T06:11:44;96682.78;;;22.81;69.03
32747;BME280;19118;50.860;13.662;2022-07-26T06:16:45;96687.66;;;23.37;66.76
32747;BME280;19118;50.860;13.662;2022-07-26T06:21:46;96694.47;;;23.77;64.82
32747;BME280;19118;50.860;13.662;2022-07-26T06:26:46;96686.38;;;23.53;63.34
32747;BME280;19118;50.860;13.662;2022-07-26T06:31:49;96694.63;;;23.67;63.35
32747;BME280;19118;50.860;13.662;2022-07-26T06:36:49;96694.22;;;23.79;61.74
32747;BME280;19118;50.860;13.662;2022-07-26T06:41:50;96698.03;;;23.25;60.77
32747;BME280;19118;50.860;13.662;2022-07-26T06:46:55;96691.19;;;24.42;57.98
32747;BME280;19118;50.860;13.662;2022-07-26T06:51:55;96695.66;;;24.33;58.45
32747;BME280;19118;50.860;13.662;2022-07-26T06:56:56;96702.25;;;24.22;57.93
32747;BME280;19118;50.860;13.662;2022-07-26T07:01:57;96698.03;;;23.49;59.71
32747;BME280;19118;50.860;13.662;2022-07-26T07:06:58;96698.13;;;23.68;59.60
32747;BME280;19118;50.860;13.662;2022-07-26T07:12:02;96704.75;;;23.51;58.60
32747;BME280;19118;50.860;13.662;2022-07-26T07:17:03;96695.50;;;24.24;56.98
32747;BME280;19118;50.860;13.662;2022-07-26T07:22:04;96699.88;;;24.58;58.12
32747;BME280;19118;50.860;13.662;2022-07-26T07:27:04;96698.00;;;24.39;59.22
32747;BME280;19118;50.860;13.662;2022-07-26T07:32:05;96694.19;;;24.92;58.49
32747;BME280;19118;50.860;13.662;2022-07-26T07:37:05;96695.53;;;24.76;57.74
32747;BME280;19118;50.860;13.662;2022-07-26T07:42:06;96707.06;;;23.87;58.70
32747;BME280;19118;50.860;13.662;2022-07-26T07:47:06;96694.84;;;24.51;57.93
32747;BME280;19118;50.860;13.662;2022-07-26T07:52:08;96696.50;;;24.09;56.88
32747;BME280;19118;50.860;13.662;2022-07-26T07:57:08;96692.03;;;24.75;55.63
32747;BME280;19118;50.860;13.662;2022-07-26T08:02:08;96697.16;;;24.90;54.67
32747;BME280;19118;50.860;13.662;2022-07-26T08:07:11;96691.09;;;24.28;54.83
32747;BME280;19118;50.860;13.662;2022-07-26T08:12:12;96688.84;;;25.06;54.39
32747;BME280;19118;50.860;13.662;2022-07-26T08:17:12;96696.16;;;25.05;53.67
32747;BME280;19118;50.860;13.662;2022-07-26T08:22:12;96700.16;;;25.21;53.80
32747;BME280;19118;50.860;13.662;2022-07-26T08:27:13;96710.59;;;26.24;51.63
32747;BME280;19118;50.860;13.662;2022-07-26T08:32:14;96708.75;;;25.83;52.97
32747;BME280;19118;50.860;13.662;2022-07-26T08:37:14;96715.19;;;24.81;53.65
32747;BME280;19118;50.860;13.662;2022-07-26T08:42:19;96714.81;;;24.36;54.99
32747;BME280;19118;50.860;13.662;2022-07-26T08:47:21;96721.53;;;23.96;55.79
32747;BME280;19118;50.860;13.662;2022-07-26T08:52:22;96705.16;;;24.30;55.93
32747;BME280;19118;50.860;13.662;2022-07-26T08:57:22;96710.00;;;24.85;55.08
32747;BME280;19118;50.860;13.662;2022-07-26T09:02:38;96726.66;;;24.92;56.89
32747;BME280;19118;50.860;13.662;2022-07-26T09:07:39;96728.59;;;25.93;53.14
32747;BME280;19118;50.860;13.662;2022-07-26T09:12:41;96713.81;;;25.16;53.45
32747;BME280;19118;50.860;13.662;2022-07-26T09:17:44;96721.34;;;25.47;51.99
32747;BME280;19118;50.860;13.662;2022-07-26T09:23:14;96729.03;;;26.72;48.81
32747;BME280;19118;50.860;13.662;2022-07-26T09:28:26;96725.97;;;26.15;49.34
32747;BME280;19118;50.860;13.662;2022-07-26T09:33:48;96735.22;;;26.86;48.39
32747;BME280;19118;50.860;13.662;2022-07-26T09:38:54;96724.25;;;27.45;48.35
32747;BME280;19118;50.860;13.662;2022-07-26T09:44:03;96721.22;;;27.46;47.81
32747;BME280;19118;50.860;13.662;2022-07-26T09:49:18;96718.25;;;27.25;48.06
32747;BME280;19118;50.860;13.662;2022-07-26T09:59:28;96727.38;;;25.44;50.66
32747;BME280;19118;50.860;13.662;2022-07-26T10:04:28;96718.16;;;26.86;50.11
32747;BME280;19118;50.860;13.662;2022-07-26T10:09:38;96721.63;;;26.42;48.54
32747;BME280;19118;50.860;13.662;2022-07-26T10:14:43;96712.00;;;27.56;45.96
32747;BME280;19118;50.860;13.662;2022-07-26T10:19:45;96719.66;;;27.23;46.81
32747;BME280;19118;50.860;13.662;2022-07-26T10:24:45;96727.31;;;26.54;48.18
32747;BME280;19118;50.860;13.662;2022-07-26T10:29:45;96723.38;;;26.82;48.41
32747;BME280;19118;50.860;13.662;2022-07-26T10:34:46;96710.09;;;28.13;46.19
32747;BME280;19118;50.860;13.662;2022-07-26T10:39:47;96721.84;;;27.83;43.98
32747;BME280;19118;50.860;13.662;2022-07-26T10:44:47;96729.16;;;27.65;46.73
32747;BME280;19118;50.860;13.662;2022-07-26T10:49:57;96727.56;;;26.30;47.00
32747;BME280;19118;50.860;13.662;2022-07-26T10:59:59;96726.69;;;27.24;47.01
32747;BME280;19118;50.860;13.662;2022-07-26T11:10:03;96736.53;;;27.11;45.73
32747;BME280;19118;50.860;13.662;2022-07-26T11:15:17;96737.06;;;27.22;44.69
32747;BME280;19118;50.860;13.662;2022-07-26T11:20:24;96729.22;;;27.51;45.67
32747;BME280;19118;50.860;13.662;2022-07-26T11:25:25;96727.56;;;27.33;45.05
32747;BME280;19118;50.860;13.662;2022-07-26T11:30:25;96730.28;;;27.73;44.66
32747;BME280;19118;50.860;13.662;2022-07-26T11:35:26;96719.81;;;27.97;44.65
32747;BME280;19118;50.860;13.662;2022-07-26T11:40:45;96706.47;;;28.53;43.04
32747;BME280;19118;50.860;13.662;2022-07-26T11:45:51;96720.72;;;28.67;43.13
32747;BME280;19118;50.860;13.662;2022-07-26T11:51:07;96716.38;;;28.75;42.02
32747;BME280;19118;50.860;13.662;2022-07-26T11:56:12;96717.84;;;29.62;40.52
32747;BME280;19118;50.860;13.662;2022-07-26T12:01:15;96719.78;;;28.89;42.74
32747;BME280;19118;50.860;13.662;2022-07-26T12:06:18;96710.25;;;28.00;44.05
32747;BME280;19118;50.860;13.662;2022-07-26T12:11:20;96722.38;;;27.01;45.99
32747;BME280;19118;50.860;13.662;2022-07-26T12:16:42;96716.47;;;27.61;44.80
32747;BME280;19118;50.860;13.662;2022-07-26T12:21:46;96708.09;;;27.79;45.70
32747;BME280;19118;50.860;13.662;2022-07-26T12:27:13;96723.75;;;26.89;46.69
32747;BME280;19118;50.860;13.662;2022-07-26T12:32:16;96718.78;;;27.67;46.92
32747;BME280;19118;50.860;13.662;2022-07-26T12:37:17;96714.63;;;27.70;45.24
32747;BME280;19118;50.860;13.662;2022-07-26T12:42:26;96716.94;;;27.01;46.92
32747;BME280;19118;50.860;13.662;2022-07-26T12:47:27;96703.34;;;26.33;47.15
32747;BME280;19118;50.860;13.662;2022-07-26T12:52:28;96706.31;;;28.58;43.15
32747;BME280;19118;50.860;13.662;2022-07-26T12:57:29;96707.66;;;27.95;43.78
32747;BME280;19118;50.860;13.662;2022-07-26T13:02:30;96696.88;;;28.55;43.27
32747;BME280;19118;50.860;13.662;2022-07-26T13:07:32;96696.56;;;27.34;43.94
32747;BME280;19118;50.860;13.662;2022-07-26T13:12:33;96699.75;;;28.33;42.84
32747;BME280;19118;50.860;13.662;2022-07-26T13:17:34;96703.59;;;28.32;42.66
32747;BME280;19118;50.860;13.662;2022-07-26T13:22:35;96704.63;;;27.96;42.72
32747;BME280;19118;50.860;13.662;2022-07-26T13:27:35;96705.34;;;28.28;41.69
32747;BME280;19118;50.860;13.662;2022-07-26T13:32:35;96703.94;;;28.56;41.49
32747;BME280;19118;50.860;13.662;2022-07-26T13:37:36;96720.31;;;27.60;43.46
32747;BME280;19118;50.860;13.662;2022-07-26T13:42:37;96717.28;;;29.31;41.75
32747;BME280;19118;50.860;13.662;2022-07-26T13:47:37;96715.91;;;28.73;43.46
32747;BME280;19118;50.860;13.662;2022-07-26T13:52:38;96721.59;;;28.19;44.10
32747;BME280;19118;50.860;13.662;2022-07-26T13:57:39;96723.28;;;28.46;44.61
32747;BME280;19118;50.860;13.662;2022-07-26T14:02:39;96729.34;;;27.69;45.47
32747;BME280;19118;50.860;13.662;2022-07-26T14:07:40;96728.56;;;27.85;45.15
32747;BME280;19118;50.860;13.662;2022-07-26T14:12:41;96735.00;;;27.59;46.62
32747;BME280;19118;50.860;13.662;2022-07-26T14:17:42;96732.59;;;27.57;47.29
32747;BME280;19118;50.860;13.662;2022-07-26T14:22:44;96743.50;;;27.04;47.77
32747;BME280;19118;50.860;13.662;2022-07-26T14:27:44;96725.28;;;27.26;47.41
32747;BME280;19118;50.860;13.662;2022-07-26T14:32:45;96736.53;;;27.42;46.93
32747;BME280;19118;50.860;13.662;2022-07-26T14:37:46;96725.91;;;27.54;46.33
32747;BME280;19118;50.860;13.662;2022-07-26T14:42:47;96726.78;;;28.38;44.28
32747;BME280;19118;50.860;13.662;2022-07-26T14:47:47;96732.94;;;27.55;46.21
32747;BME280;19118;50.860;13.662;2022-07-26T14:52:48;96729.91;;;26.81;47.52
32747;BME280;19118;50.860;13.662;2022-07-26T14:57:48;96732.09;;;27.46;46.95
32747;BME280;19118;50.860;13.662;2022-07-26T15:02:49;96736.81;;;26.87;47.51
32747;BME280;19118;50.860;13.662;2022-07-26T15:07:49;96747.88;;;25.77;49.40
32747;BME280;19118;50.860;13.662;2022-07-26T15:12:49;96751.38;;;26.19;48.76
32747;BME280;19118;50.860;13.662;2022-07-26T15:17:50;96739.66;;;27.27;47.71
32747;BME280;19118;50.860;13.662;2022-07-26T15:22:51;96753.44;;;27.08;48.14
32747;BME280;19118;50.860;13.662;2022-07-26T15:27:55;96754.78;;;27.50;47.33
32747;BME280;19118;50.860;13.662;2022-07-26T15:32:55;96750.94;;;27.51;47.55
32747;BME280;19118;50.860;13.662;2022-07-26T15:37:56;96759.75;;;26.81;49.30
32747;BME280;19118;50.860;13.662;2022-07-26T15:42:57;96757.50;;;26.61;49.70
32747;BME280;19118;50.860;13.662;2022-07-26T15:47:57;96761.75;;;27.34;48.76
32747;BME280;19118;50.860;13.662;2022-07-26T15:52:58;96758.63;;;26.82;49.41
32747;BME280;19118;50.860;13.662;2022-07-26T15:57:58;96755.84;;;27.10;48.40
32747;BME280;19118;50.860;13.662;2022-07-26T16:02:59;96755.81;;;26.65;49.63
32747;BME280;19118;50.860;13.662;2022-07-26T16:07:59;96761.38;;;27.05;48.88
32747;BME280;19118;50.860;13.662;2022-07-26T16:12:59;96758.06;;;26.72;48.60
32747;BME280;19118;50.860;13.662;2022-07-26T16:18:00;96752.81;;;25.75;51.27
32747;BME280;19118;50.860;13.662;2022-07-26T16:23:01;96762.31;;;26.14;51.88
32747;BME280;19118;50.860;13.662;2022-07-26T16:28:01;96765.25;;;25.76;53.58
32747;BME280;19118;50.860;13.662;2022-07-26T16:33:02;96764.47;;;25.43;53.71
32747;BME280;19118;50.860;13.662;2022-07-26T16:38:03;96765.88;;;25.27;53.91
32747;BME280;19118;50.860;13.662;2022-07-26T16:43:03;96779.81;;;25.02;54.68
32747;BME280;19118;50.860;13.662;2022-07-26T16:48:04;96783.41;;;25.90;53.93
32747;BME280;19118;50.860;13.662;2022-07-26T16:53:04;96790.03;;;27.11;51.51
32747;BME280;19118;50.860;13.662;2022-07-26T16:58:05;96795.84;;;26.32;53.94
32747;BME280;19118;50.860;13.662;2022-07-26T17:03:05;96789.81;;;26.21;54.59
32747;BME280;19118;50.860;13.662;2022-07-26T17:08:06;96788.16;;;25.38;56.30
32747;BME280;19118;50.860;13.662;2022-07-26T17:13:06;96784.16;;;25.49;55.97
32747;BME280;19118;50.860;13.662;2022-07-26T17:18:06;96793.50;;;24.73;57.23
32747;BME280;19118;50.860;13.662;2022-07-26T17:23:07;96797.34;;;25.37;56.42
32747;BME280;19118;50.860;13.662;2022-07-26T17:28:07;96807.16;;;25.33;56.16
32747;BME280;19118;50.860;13.662;2022-07-26T17:33:09;96811.38;;;24.68;57.01
32747;BME280;19118;50.860;13.662;2022-07-26T17:38:09;96817.53;;;26.46;54.00
32747;BME280;19118;50.860;13.662;2022-07-26T17:43:09;96815.22;;;25.84;54.74
32747;BME280;19118;50.860;13.662;2022-07-26T17:48:10;96820.03;;;25.41;55.91
32747;BME280;19118;50.860;13.662;2022-07-26T17:53:10;96821.69;;;24.66;57.48
32747;BME280;19118;50.860;13.662;2022-07-26T17:58:10;96813.59;;;24.48;58.36
32747;BME280;19118;50.860;13.662;2022-07-26T18:03:11;96825.50;;;23.46;60.88
32747;BME280;19118;50.860;13.662;2022-07-26T18:08:11;96823.75;;;23.55;60.67
32747;BME280;19118;50.860;13.662;2022-07-26T18:13:11;96821.16;;;23.16;62.07
32747;BME280;19118;50.860;13.662;2022-07-26T18:18:12;96828.06;;;22.93;62.46
32747;BME280;19118;50.860;13.662;2022-07-26T18:23:12;96820.66;;;22.20;64.02
32747;BME280;19118;50.860;13.662;2022-07-26T18:28:13;96818.16;;;22.83;62.45
32747;BME280;19118;50.860;13.662;2022-07-26T18:33:13;96829.56;;;21.95;64.83
32747;BME280;19118;50.860;13.662;2022-07-26T18:38:14;96825.50;;;22.08;64.28
32747;BME280;19118;50.860;13.662;2022-07-26T18:43:14;96822.00;;;22.07;64.16
32747;BME280;19118;50.860;13.662;2022-07-26T18:48:14;96829.34;;;21.82;65.15
32747;BME280;19118;50.860;13.662;2022-07-26T18:53:15;96829.88;;;21.84;65.36
32747;BME280;19118;50.860;13.662;2022-07-26T18:58:15;96835.31;;;21.68;65.83
32747;BME280;19118;50.860;13.662;2022-07-26T19:03:15;96835.28;;;21.78;65.93
32747;BME280;19118;50.860;13.662;2022-07-26T19:08:16;96844.16;;;21.74;66.71
32747;BME280;19118;50.860;13.662;2022-07-26T19:13:16;96848.44;;;21.90;65.96
32747;BME280;19118;50.860;13.662;2022-07-26T19:18:16;96852.50;;;21.88;65.75
32747;BME280;19118;50.860;13.662;2022-07-26T19:23:17;96865.72;;;21.69;66.48
32747;BME280;19118;50.860;13.662;2022-07-26T19:28:17;96868.97;;;21.50;67.16
32747;BME280;19118;50.860;13.662;2022-07-26T19:33:17;96870.59;;;21.57;66.70
32747;BME280;19118;50.860;13.662;2022-07-26T19:38:18;96863.34;;;21.32;67.24
32747;BME280;19118;50.860;13.662;2022-07-26T19:43:19;96869.22;;;21.18;68.17
32747;BME280;19118;50.860;13.662;2022-07-26T19:48:19;96874.56;;;20.98;68.89
32747;BME280;19118;50.860;13.662;2022-07-26T19:53:20;96879.94;;;20.98;68.50
32747;BME280;19118;50.860;13.662;2022-07-26T19:58:20;96888.28;;;20.97;68.87
32747;BME280;19118;50.860;13.662;2022-07-26T20:03:20;96898.13;;;20.55;69.42
32747;BME280;19118;50.860;13.662;2022-07-26T20:08:21;96894.09;;;20.53;70.01
32747;BME280;19118;50.860;13.662;2022-07-26T20:13:21;96894.31;;;20.46;70.05
32747;BME280;19118;50.860;13.662;2022-07-26T20:18:22;96903.31;;;20.20;71.04
32747;BME280;19118;50.860;13.662;2022-07-26T20:23:24;96900.03;;;20.13;71.37
32747;BME280;19118;50.860;13.662;2022-07-26T20:28:24;96905.25;;;20.29;70.80
32747;BME280;19118;50.860;13.662;2022-07-26T20:33:25;96913.13;;;20.04;71.40
32747;BME280;19118;50.860;13.662;2022-07-26T20:38:25;96913.03;;;20.31;70.89
32747;BME280;19118;50.860;13.662;2022-07-26T20:43:26;96908.94;;;20.23;71.00
32747;BME280;19118;50.860;13.662;2022-07-26T20:48:26;96915.72;;;20.31;70.83
32747;BME280;19118;50.860;13.662;2022-07-26T20:53:26;96916.47;;;20.26;71.04
32747;BME280;19118;50.860;13.662;2022-07-26T20:58:27;96909.81;;;20.29;70.67
32747;BME280;19118;50.860;13.662;2022-07-26T21:03:27;96920.44;;;20.14;71.40
32747;BME280;19118;50.860;13.662;2022-07-26T21:08:28;96917.25;;;20.17;71.19
32747;BME280;19118;50.860;13.662;2022-07-26T21:13:28;96917.28;;;20.27;70.83
32747;BME280;19118;50.860;13.662;2022-07-26T21:18:29;96918.34;;;20.21;71.12
32747;BME280;19118;50.860;13.662;2022-07-26T21:23:30;96917.53;;;20.20;71.25
32747;BME280;19118;50.860;13.662;2022-07-26T21:28:30;96926.31;;;20.05;71.55
32747;BME280;19118;50.860;13.662;2022-07-26T21:33:30;96935.38;;;19.94;71.94
32747;BME280;19118;50.860;13.662;2022-07-26T21:38:32;96940.28;;;20.08;71.66
32747;BME280;19118;50.860;13.662;2022-07-26T21:43:32;96928.22;;;20.10;71.56
32747;BME280;19118;50.860;13.662;2022-07-26T21:48:33;96938.09;;;19.99;72.16
32747;BME280;19118;50.860;13.662;2022-07-26T21:53:33;96931.44;;;20.07;72.01
32747;BME280;19118;50.860;13.662;2022-07-26T21:58:33;96934.34;;;20.00;72.37
32747;BME280;19118;50.860;13.662;2022-07-26T22:03:34;96946.84;;;19.85;72.93
32747;BME280;19118;50.860;13.662;2022-07-26T22:08:36;96939.97;;;20.04;72.02
32747;BME280;19118;50.860;13.662;2022-07-26T22:13:37;96943.09;;;19.86;72.89
32747;BME280;19118;50.860;13.662;2022-07-26T22:18:37;96939.41;;;19.97;72.64
32747;BME280;19118;50.860;13.662;2022-07-26T22:23:38;96954.59;;;19.81;73.13
32747;BME280;19118;50.860;13.662;2022-07-26T22:28:38;96943.47;;;19.99;72.36
32747;BME280;19118;50.860;13.662;2022-07-26T22:33:38;96938.50;;;19.81;72.68
32747;BME280;19118;50.860;13.662;2022-07-26T22:38:39;96933.91;;;19.76;72.91
32747;BME280;19118;50.860;13.662;2022-07-26T22:43:39;96949.97;;;19.71;73.26
32747;BME280;19118;50.860;13.662;2022-07-26T22:48:40;96945.09;;;19.68;73.26
32747;BME280;19118;50.860;13.662;2022-07-26T22:53:40;96945.69;;;19.43;74.26
32747;BME280;19118;50.860;13.662;2022-07-26T22:58:40;96943.06;;;19.48;74.41
32747;BME280;19118;50.860;13.662;2022-07-26T23:03:41;96946.97;;;19.63;74.03
32747;BME280;19118;50.860;13.662;2022-07-26T23:08:41;96946.72;;;19.37;74.67
32747;BME280;19118;50.860;13.662;2022-07-26T23:13:41;96953.59;;;19.55;74.45
32747;BME280;19118;50.860;13.662;2022-07-26T23:18:42;96949.53;;;19.53;74.11
32747;BME280;19118;50.860;13.662;2022-07-26T23:23:42;96955.81;;;19.63;73.38
32747;BME280;19118;50.860;13.662;2022-07-26T23:28:42;96953.97;;;19.69;72.98
32747;BME280;19118;50.860;13.662;2022-07-26T23:33:43;96949.72;;;19.73;72.87
32747;BME280;19118;50.860;13.662;2022-07-26T23:38:43;96956.09;;;19.67;73.15
32747;BME280;19118;50.860;13.662;2022-07-26T23:43:44;96951.47;;;19.57;73.21
32747;BME280;19118;50.860;13.662;2022-07-26T23:48:44;96955.56;;;19.70;72.85
32747;BME280;19118;50.860;13.662;2022-07-26T23:53:45;96952.84;;;19.60;73.21
32747;BME280;19118;50.860;13.662;2022-07-26T23:58:45;96964.66;;;19.64;73.18
